Aérodrome :
LOGIN :

S'inscrire | Disclaimer

   EN    FR    IT 

 










Légende :    VFR   VFR Marginal   IFR   IFR Intensif   IFR Très Intensif
Visi : 
Plafond : 
>= 8 km
>= 3000ft
5 à 8 km
1000 à 3000 ft
1500m à 5 km
500 à 1000 ft
800 à 1500m
200 à 500 ft
< 800m
< 200 ft
Symboles :   Orages  Brouillard  Fortes neiges  Fortes précipitations  Vent > 20 kt
SIGMETs :   Divers  Orages  Givrage  Turbulence  Onde Orograph.  Cendres Volcan.







- Altitude de l'aérodrome : 364 ft
- Code IATA : FRA


EDDF - Frankfurt Int.

DERNIER METAR :
  • 190050Z 19003KT CAVOK 18/14 Q1013 NOSIG

METARs EXPIRÉS :
  • 190020Z 19003KT CAVOK 18/14 Q1013 NOSIG
  • 182350Z VRB02KT CAVOK 18/14 Q1013 NOSIG
  • 182320Z 22002KT CAVOK 19/14 Q1013 NOSIG
  • 182250Z 20003KT CAVOK 19/14 Q1013 NOSIG
  • 182220Z VRB02KT CAVOK 20/14 Q1013 NOSIG

TAF TAF EDDF
Valide du 19 à 00h jusqu'au 20 à 06h UTC


182300Z 1900/2006 22003KT 9999 SCT040
TEMPO 1900/1909 SHRA BKN040TCU
BECMG 1900/1902 28006KT
BECMG 1905/1907 21008KT
BECMG 1918/1920 16003KT
Pas de NOTAMs connus pour ce terrain.



MET'MAP, la Météo Aéronautique d'un coup d'oeil ! - Copyright ORBIFLY Décembre 2007 - Disclaimer

ORBIFLY MET'MAP TEAM :

Programmation & Développement : Alexandra Zaïnal
Conception & Développement : Baudouin d'Aumeries
Co-Programmation & Développement : Marc-Olivier Méhu
Soutien technique & logistique : Manuel Goepfert

Contact : metmap@orbifly.com




SOURCES & CREDITS :

   NOAA